sensor_id;sensor_type;location;lat;lon;timestamp;P1;durP1;ratioP1;P2;durP2;ratioP2
21727;SDS011;11026;50.560;17.852;2022-09-09T00:04:35;13.32;;;11.07;;
21727;SDS011;11026;50.560;17.852;2022-09-09T00:14:02;13.15;;;12.05;;
21727;SDS011;11026;50.560;17.852;2022-09-09T00:18:50;13.85;;;12.45;;
21727;SDS011;11026;50.560;17.852;2022-09-09T00:21:33;14.05;;;12.85;;
21727;SDS011;11026;50.560;17.852;2022-09-09T00:27:10;14.20;;;13.00;;
21727;SDS011;11026;50.560;17.852;2022-09-09T00:29:45;14.05;;;12.65;;
21727;SDS011;11026;50.560;17.852;2022-09-09T00:32:19;14.10;;;12.70;;
21727;SDS011;11026;50.560;17.852;2022-09-09T00:35:01;13.00;;;11.80;;
21727;SDS011;11026;50.560;17.852;2022-09-09T00:37:39;14.23;;;12.98;;
21727;SDS011;11026;50.560;17.852;2022-09-09T00:55:16;16.40;;;14.90;;
21727;SDS011;11026;50.560;17.852;2022-09-09T00:57:46;16.88;;;15.48;;
21727;SDS011;11026;50.560;17.852;2022-09-09T01:00:22;17.52;;;15.82;;
21727;SDS011;11026;50.560;17.852;2022-09-09T01:06:15;20.10;;;15.57;;
21727;SDS011;11026;50.560;17.852;2022-09-09T01:29:09;17.02;;;15.30;;
21727;SDS011;11026;50.560;17.852;2022-09-09T01:34:25;17.90;;;16.08;;
21727;SDS011;11026;50.560;17.852;2022-09-09T01:39:52;17.67;;;16.02;;
21727;SDS011;11026;50.560;17.852;2022-09-09T01:42:19;18.00;;;16.25;;
21727;SDS011;11026;50.560;17.852;2022-09-09T01:44:46;18.52;;;16.67;;
21727;SDS011;11026;50.560;17.852;2022-09-09T01:47:21;18.65;;;16.95;;
21727;SDS011;11026;50.560;17.852;2022-09-09T02:01:39;16.25;;;14.65;;
21727;SDS011;11026;50.560;17.852;2022-09-09T02:04:26;16.42;;;14.82;;
21727;SDS011;11026;50.560;17.852;2022-09-09T02:07:28;15.65;;;14.25;;
21727;SDS011;11026;50.560;17.852;2022-09-09T02:10:28;16.13;;;14.63;;
21727;SDS011;11026;50.560;17.852;2022-09-09T02:13:18;17.73;;;16.10;;
21727;SDS011;11026;50.560;17.852;2022-09-09T02:18:39;17.75;;;15.98;;
21727;SDS011;11026;50.560;17.852;2022-09-09T02:21:35;18.08;;;16.23;;
21727;SDS011;11026;50.560;17.852;2022-09-09T02:26:41;18.80;;;17.02;;
21727;SDS011;11026;50.560;17.852;2022-09-09T02:29:15;19.42;;;17.58;;
21727;SDS011;11026;50.560;17.852;2022-09-09T02:32:13;18.48;;;15.95;;
21727;SDS011;11026;50.560;17.852;2022-09-09T02:34:46;18.02;;;16.33;;
21727;SDS011;11026;50.560;17.852;2022-09-09T02:37:18;16.88;;;15.13;;
21727;SDS011;11026;50.560;17.852;2022-09-09T02:39:49;17.02;;;15.07;;
21727;SDS011;11026;50.560;17.852;2022-09-09T02:42:24;16.45;;;14.80;;
21727;SDS011;11026;50.560;17.852;2022-09-09T02:44:51;16.08;;;14.48;;
21727;SDS011;11026;50.560;17.852;2022-09-09T02:58:47;15.75;;;14.27;;
21727;SDS011;11026;50.560;17.852;2022-09-09T03:01:17;16.83;;;15.10;;
21727;SDS011;11026;50.560;17.852;2022-09-09T03:06:17;16.20;;;14.80;;
21727;SDS011;11026;50.560;17.852;2022-09-09T03:08:53;15.63;;;14.23;;
21727;SDS011;11026;50.560;17.852;2022-09-09T03:11:20;17.00;;;15.40;;
21727;SDS011;11026;50.560;17.852;2022-09-09T03:13:47;17.15;;;15.40;;
21727;SDS011;11026;50.560;17.852;2022-09-09T03:16:15;16.90;;;15.27;;
21727;SDS011;11026;50.560;17.852;2022-09-09T03:18:50;16.30;;;14.70;;
21727;SDS011;11026;50.560;17.852;2022-09-09T03:21:28;16.05;;;14.50;;
21727;SDS011;11026;50.560;17.852;2022-09-09T03:23:57;14.80;;;13.40;;
21727;SDS011;11026;50.560;17.852;2022-09-09T03:28:57;14.75;;;13.45;;
21727;SDS011;11026;50.560;17.852;2022-09-09T03:36:36;15.70;;;13.82;;
21727;SDS011;11026;50.560;17.852;2022-09-09T03:41:35;14.20;;;12.90;;
21727;SDS011;11026;50.560;17.852;2022-09-09T03:44:09;51.53;;;35.17;;
21727;SDS011;11026;50.560;17.852;2022-09-09T03:49:28;41.58;;;29.63;;
21727;SDS011;11026;50.560;17.852;2022-09-09T03:59:56;14.15;;;12.75;;
21727;SDS011;11026;50.560;17.852;2022-09-09T04:02:25;14.27;;;12.88;;
21727;SDS011;11026;50.560;17.852;2022-09-09T04:04:52;13.93;;;12.52;;
21727;SDS011;11026;50.560;17.852;2022-09-09T04:07:19;14.77;;;12.93;;
21727;SDS011;11026;50.560;17.852;2022-09-09T04:09:46;12.93;;;11.82;;
21727;SDS011;11026;50.560;17.852;2022-09-09T04:12:13;12.68;;;11.57;;
21727;SDS011;11026;50.560;17.852;2022-09-09T04:14:40;13.77;;;12.38;;
21727;SDS011;11026;50.560;17.852;2022-09-09T04:17:09;12.88;;;11.73;;
21727;SDS011;11026;50.560;17.852;2022-09-09T04:19:43;13.85;;;12.55;;
21727;SDS011;11026;50.560;17.852;2022-09-09T04:22:12;13.85;;;12.13;;
21727;SDS011;11026;50.560;17.852;2022-09-09T04:30:04;14.13;;;12.93;;
21727;SDS011;11026;50.560;17.852;2022-09-09T04:35:24;13.68;;;12.48;;
21727;SDS011;11026;50.560;17.852;2022-09-09T04:37:52;14.65;;;13.35;;
21727;SDS011;11026;50.560;17.852;2022-09-09T04:40:21;14.27;;;12.98;;
21727;SDS011;11026;50.560;17.852;2022-09-09T04:42:49;15.23;;;13.52;;
21727;SDS011;11026;50.560;17.852;2022-09-09T04:45:17;13.93;;;12.57;;
21727;SDS011;11026;50.560;17.852;2022-09-09T04:47:45;13.75;;;12.45;;
21727;SDS011;11026;50.560;17.852;2022-09-09T04:50:15;14.35;;;12.90;;
21727;SDS011;11026;50.560;17.852;2022-09-09T04:55:36;14.27;;;12.80;;
21727;SDS011;11026;50.560;17.852;2022-09-09T04:58:06;13.40;;;12.07;;
21727;SDS011;11026;50.560;17.852;2022-09-09T05:00:34;12.50;;;11.35;;
21727;SDS011;11026;50.560;17.852;2022-09-09T05:03:07;13.43;;;12.25;;
21727;SDS011;11026;50.560;17.852;2022-09-09T05:05:40;14.70;;;11.00;;
21727;SDS011;11026;50.560;17.852;2022-09-09T05:08:08;12.80;;;11.70;;
21727;SDS011;11026;50.560;17.852;2022-09-09T05:10:37;13.57;;;12.38;;
21727;SDS011;11026;50.560;17.852;2022-09-09T05:13:07;12.15;;;11.02;;
21727;SDS011;11026;50.560;17.852;2022-09-09T05:15:35;11.77;;;10.65;;
21727;SDS011;11026;50.560;17.852;2022-09-09T05:18:02;12.50;;;11.25;;
21727;SDS011;11026;50.560;17.852;2022-09-09T05:20:30;10.80;;;9.90;;
21727;SDS011;11026;50.560;17.852;2022-09-09T05:22:58;13.10;;;10.32;;
21727;SDS011;11026;50.560;17.852;2022-09-09T05:25:31;11.40;;;10.30;;
21727;SDS011;11026;50.560;17.852;2022-09-09T05:27:58;10.98;;;9.88;;
21727;SDS011;11026;50.560;17.852;2022-09-09T05:30:26;9.20;;;8.40;;
21727;SDS011;11026;50.560;17.852;2022-09-09T05:32:57;8.77;;;7.70;;
21727;SDS011;11026;50.560;17.852;2022-09-09T05:35:26;8.48;;;7.78;;
21727;SDS011;11026;50.560;17.852;2022-09-09T05:37:58;9.57;;;8.80;;
21727;SDS011;11026;50.560;17.852;2022-09-09T05:40:26;10.07;;;8.57;;
21727;SDS011;11026;50.560;17.852;2022-09-09T05:43:02;9.65;;;8.68;;
21727;SDS011;11026;50.560;17.852;2022-09-09T05:45:29;9.40;;;8.52;;
21727;SDS011;11026;50.560;17.852;2022-09-09T05:47:58;9.95;;;9.07;;
21727;SDS011;11026;50.560;17.852;2022-09-09T05:53:04;12.25;;;10.93;;
21727;SDS011;11026;50.560;17.852;2022-09-09T05:55:33;11.35;;;10.25;;
21727;SDS011;11026;50.560;17.852;2022-09-09T05:58:00;11.15;;;10.25;;
21727;SDS011;11026;50.560;17.852;2022-09-09T06:00:28;11.98;;;10.80;;
21727;SDS011;11026;50.560;17.852;2022-09-09T06:03:00;11.10;;;10.00;;
21727;SDS011;11026;50.560;17.852;2022-09-09T06:05:29;10.55;;;9.60;;
21727;SDS011;11026;50.560;17.852;2022-09-09T06:08:03;9.85;;;8.93;;
21727;SDS011;11026;50.560;17.852;2022-09-09T06:10:30;10.80;;;9.90;;
21727;SDS011;11026;50.560;17.852;2022-09-09T06:12:59;9.85;;;8.98;;
21727;SDS011;11026;50.560;17.852;2022-09-09T06:15:26;9.80;;;8.82;;
21727;SDS011;11026;50.560;17.852;2022-09-09T06:17:54;9.70;;;8.65;;
21727;SDS011;11026;50.560;17.852;2022-09-09T06:20:23;8.90;;;8.20;;
21727;SDS011;11026;50.560;17.852;2022-09-09T06:23:00;9.98;;;7.80;;
21727;SDS011;11026;50.560;17.852;2022-09-09T06:25:29;9.60;;;7.13;;
21727;SDS011;11026;50.560;17.852;2022-09-09T06:27:56;6.78;;;5.60;;
21727;SDS011;11026;50.560;17.852;2022-09-09T06:33:03;6.38;;;5.93;;
21727;SDS011;11026;50.560;17.852;2022-09-09T06:35:30;6.38;;;5.78;;
21727;SDS011;11026;50.560;17.852;2022-09-09T06:38:00;6.10;;;5.60;;
21727;SDS011;11026;50.560;17.852;2022-09-09T06:40:32;6.75;;;5.13;;
21727;SDS011;11026;50.560;17.852;2022-09-09T06:45:42;5.93;;;4.70;;
21727;SDS011;11026;50.560;17.852;2022-09-09T06:48:10;4.73;;;4.33;;
21727;SDS011;11026;50.560;17.852;2022-09-09T06:50:38;5.50;;;5.00;;
21727;SDS011;11026;50.560;17.852;2022-09-09T06:53:05;5.38;;;4.88;;
21727;SDS011;11026;50.560;17.852;2022-09-09T06:55:38;4.22;;;3.65;;
21727;SDS011;11026;50.560;17.852;2022-09-09T06:58:13;4.18;;;3.75;;
21727;SDS011;11026;50.560;17.852;2022-09-09T07:03:15;5.15;;;4.75;;
21727;SDS011;11026;50.560;17.852;2022-09-09T07:05:43;5.35;;;4.30;;
21727;SDS011;11026;50.560;17.852;2022-09-09T07:13:44;4.57;;;4.18;;
21727;SDS011;11026;50.560;17.852;2022-09-09T07:16:16;3.85;;;3.53;;
21727;SDS011;11026;50.560;17.852;2022-09-09T07:18:46;4.63;;;3.53;;
21727;SDS011;11026;50.560;17.852;2022-09-09T07:21:14;4.75;;;3.40;;
21727;SDS011;11026;50.560;17.852;2022-09-09T07:23:42;5.18;;;3.97;;
21727;SDS011;11026;50.560;17.852;2022-09-09T07:26:14;4.65;;;3.70;;
21727;SDS011;11026;50.560;17.852;2022-09-09T07:28:44;4.57;;;4.20;;
21727;SDS011;11026;50.560;17.852;2022-09-09T07:31:13;5.30;;;3.88;;
21727;SDS011;11026;50.560;17.852;2022-09-09T07:33:49;4.10;;;3.25;;
21727;SDS011;11026;50.560;17.852;2022-09-09T07:38:59;4.68;;;3.10;;
21727;SDS011;11026;50.560;17.852;2022-09-09T07:41:32;3.55;;;3.05;;
21727;SDS011;11026;50.560;17.852;2022-09-09T07:44:07;3.65;;;3.35;;
21727;SDS011;11026;50.560;17.852;2022-09-09T07:46:50;3.25;;;2.95;;
21727;SDS011;11026;50.560;17.852;2022-09-09T07:49:24;4.05;;;3.05;;
21727;SDS011;11026;50.560;17.852;2022-09-09T07:52:00;5.38;;;3.35;;
21727;SDS011;11026;50.560;17.852;2022-09-09T07:57:24;3.80;;;2.75;;
21727;SDS011;11026;50.560;17.852;2022-09-09T07:59:52;3.25;;;3.05;;
21727;SDS011;11026;50.560;17.852;2022-09-09T08:02:24;2.97;;;2.70;;
21727;SDS011;11026;50.560;17.852;2022-09-09T08:07:25;3.38;;;3.08;;
21727;SDS011;11026;50.560;17.852;2022-09-09T08:09:54;3.30;;;2.90;;
21727;SDS011;11026;50.560;17.852;2022-09-09T08:12:22;4.35;;;3.22;;
21727;SDS011;11026;50.560;17.852;2022-09-09T08:14:55;2.95;;;2.70;;
21727;SDS011;11026;50.560;17.852;2022-09-09T08:17:24;2.47;;;2.28;;
21727;SDS011;11026;50.560;17.852;2022-09-09T08:19:54;2.90;;;2.70;;
21727;SDS011;11026;50.560;17.852;2022-09-09T08:22:23;3.85;;;2.60;;
21727;SDS011;11026;50.560;17.852;2022-09-09T08:24:52;2.97;;;2.40;;
21727;SDS011;11026;50.560;17.852;2022-09-09T08:27:25;3.05;;;2.40;;
21727;SDS011;11026;50.560;17.852;2022-09-09T08:29:52;3.10;;;2.80;;
21727;SDS011;11026;50.560;17.852;2022-09-09T08:32:19;3.50;;;2.63;;
21727;SDS011;11026;50.560;17.852;2022-09-09T08:34:46;2.40;;;2.20;;
21727;SDS011;11026;50.560;17.852;2022-09-09T08:37:20;2.75;;;2.13;;
21727;SDS011;11026;50.560;17.852;2022-09-09T08:39:51;2.40;;;2.20;;
21727;SDS011;11026;50.560;17.852;2022-09-09T08:53:22;4.32;;;2.40;;
21727;SDS011;11026;50.560;17.852;2022-09-09T09:11:03;2.15;;;1.88;;
21727;SDS011;11026;50.560;17.852;2022-09-09T09:13:38;2.75;;;1.85;;
21727;SDS011;11026;50.560;17.852;2022-09-09T09:19:14;2.58;;;2.38;;
21727;SDS011;11026;50.560;17.852;2022-09-09T09:21:45;3.20;;;1.83;;
21727;SDS011;11026;50.560;17.852;2022-09-09T09:28:03;4.25;;;1.80;;
21727;SDS011;11026;50.560;17.852;2022-09-09T09:33:46;2.65;;;1.70;;
21727;SDS011;11026;50.560;17.852;2022-09-09T09:35:58;2.50;;;1.50;;
21727;SDS011;11026;50.560;17.852;2022-09-09T09:38:29;3.53;;;1.40;;
21727;SDS011;11026;50.560;17.852;2022-09-09T09:41:17;2.30;;;1.67;;
21727;SDS011;11026;50.560;17.852;2022-09-09T09:44:03;1.67;;;1.40;;
21727;SDS011;11026;50.560;17.852;2022-09-09T09:46:32;2.33;;;1.30;;
21727;SDS011;11026;50.560;17.852;2022-09-09T09:49:01;3.72;;;1.50;;
21727;SDS011;11026;50.560;17.852;2022-09-09T09:51:32;3.38;;;1.50;;
21727;SDS011;11026;50.560;17.852;2022-09-09T09:54:15;2.17;;;1.40;;
21727;SDS011;11026;50.560;17.852;2022-09-09T09:57:07;2.53;;;1.80;;
21727;SDS011;11026;50.560;17.852;2022-09-09T09:59:45;2.08;;;1.63;;
21727;SDS011;11026;50.560;17.852;2022-09-09T10:05:15;1.70;;;1.60;;
21727;SDS011;11026;50.560;17.852;2022-09-09T10:13:13;3.15;;;1.35;;
21727;SDS011;11026;50.560;17.852;2022-09-09T10:16:06;2.80;;;0.90;;
21727;SDS011;11026;50.560;17.852;2022-09-09T10:19:17;1.42;;;0.90;;
21727;SDS011;11026;50.560;17.852;2022-09-09T10:43:03;2.83;;;1.25;;
21727;SDS011;11026;50.560;17.852;2022-09-09T10:45:55;2.05;;;1.05;;
21727;SDS011;11026;50.560;17.852;2022-09-09T10:51:56;2.17;;;1.10;;
21727;SDS011;11026;50.560;17.852;2022-09-09T10:55:16;2.38;;;1.23;;
21727;SDS011;11026;50.560;17.852;2022-09-09T10:57:29;2.25;;;1.02;;
21727;SDS011;11026;50.560;17.852;2022-09-09T11:00:47;1.38;;;0.98;;
21727;SDS011;11026;50.560;17.852;2022-09-09T11:16:42;2.10;;;1.10;;
21727;SDS011;11026;50.560;17.852;2022-09-09T11:19:38;2.65;;;1.02;;
21727;SDS011;11026;50.560;17.852;2022-09-09T11:33:41;2.78;;;1.30;;
21727;SDS011;11026;50.560;17.852;2022-09-09T11:36:23;2.50;;;1.00;;
21727;SDS011;11026;50.560;17.852;2022-09-09T11:42:07;3.30;;;1.10;;
21727;SDS011;11026;50.560;17.852;2022-09-09T11:44:42;1.70;;;1.23;;
21727;SDS011;11026;50.560;17.852;2022-09-09T11:47:28;1.98;;;1.00;;
21727;SDS011;11026;50.560;17.852;2022-09-09T11:50:08;1.85;;;1.05;;
21727;SDS011;11026;50.560;17.852;2022-09-09T11:52:37;3.13;;;1.02;;
21727;SDS011;11026;50.560;17.852;2022-09-09T11:55:09;3.75;;;1.27;;
21727;SDS011;11026;50.560;17.852;2022-09-09T11:58:37;1.70;;;1.13;;
21727;SDS011;11026;50.560;17.852;2022-09-09T12:00:43;1.60;;;1.00;;
21727;SDS011;11026;50.560;17.852;2022-09-09T12:05:57;2.90;;;1.10;;
21727;SDS011;11026;50.560;17.852;2022-09-09T12:08:31;3.75;;;1.30;;
21727;SDS011;11026;50.560;17.852;2022-09-09T12:11:02;1.80;;;0.98;;
21727;SDS011;11026;50.560;17.852;2022-09-09T12:13:51;2.25;;;1.02;;
21727;SDS011;11026;50.560;17.852;2022-09-09T12:16:36;3.40;;;1.10;;
21727;SDS011;11026;50.560;17.852;2022-09-09T12:25:06;3.35;;;1.20;;
21727;SDS011;11026;50.560;17.852;2022-09-09T12:31:18;3.00;;;0.93;;
21727;SDS011;11026;50.560;17.852;2022-09-09T12:33:39;2.15;;;0.90;;
21727;SDS011;11026;50.560;17.852;2022-09-09T12:36:16;2.00;;;1.00;;
21727;SDS011;11026;50.560;17.852;2022-09-09T12:38:51;1.63;;;1.08;;
21727;SDS011;11026;50.560;17.852;2022-09-09T12:41:22;3.03;;;0.98;;
21727;SDS011;11026;50.560;17.852;2022-09-09T12:44:08;3.13;;;1.45;;
21727;SDS011;11026;50.560;17.852;2022-09-09T12:46:39;1.85;;;1.02;;
21727;SDS011;11026;50.560;17.852;2022-09-09T12:55:04;1.90;;;1.00;;
21727;SDS011;11026;50.560;17.852;2022-09-09T12:57:41;2.55;;;1.00;;
21727;SDS011;11026;50.560;17.852;2022-09-09T13:00:17;2.42;;;1.05;;
21727;SDS011;11026;50.560;17.852;2022-09-09T13:02:54;1.58;;;1.20;;
21727;SDS011;11026;50.560;17.852;2022-09-09T13:05:35;1.70;;;1.00;;
21727;SDS011;11026;50.560;17.852;2022-09-09T13:08:11;3.15;;;1.00;;
21727;SDS011;11026;50.560;17.852;2022-09-09T13:10:44;1.77;;;1.02;;
21727;SDS011;11026;50.560;17.852;2022-09-09T13:13:38;3.30;;;1.10;;
21727;SDS011;11026;50.560;17.852;2022-09-09T13:19:08;2.53;;;1.23;;
21727;SDS011;11026;50.560;17.852;2022-09-09T13:21:41;3.50;;;1.08;;
21727;SDS011;11026;50.560;17.852;2022-09-09T13:24:29;4.38;;;1.20;;
21727;SDS011;11026;50.560;17.852;2022-09-09T13:26:59;4.35;;;1.20;;
21727;SDS011;11026;50.560;17.852;2022-09-09T13:29:28;3.83;;;1.08;;
21727;SDS011;11026;50.560;17.852;2022-09-09T13:32:16;2.10;;;1.10;;
21727;SDS011;11026;50.560;17.852;2022-09-09T13:37:36;3.53;;;1.20;;
21727;SDS011;11026;50.560;17.852;2022-09-09T13:40:05;1.85;;;1.17;;
21727;SDS011;11026;50.560;17.852;2022-09-09T13:42:36;2.60;;;1.20;;
21727;SDS011;11026;50.560;17.852;2022-09-09T13:45:18;2.92;;;1.38;;
21727;SDS011;11026;50.560;17.852;2022-09-09T13:47:48;3.13;;;1.17;;
21727;SDS011;11026;50.560;17.852;2022-09-09T13:50:19;2.53;;;1.20;;
21727;SDS011;11026;50.560;17.852;2022-09-09T13:52:54;4.22;;;1.30;;
21727;SDS011;11026;50.560;17.852;2022-09-09T13:55:25;3.20;;;1.42;;
21727;SDS011;11026;50.560;17.852;2022-09-09T14:00:29;2.90;;;1.05;;
21727;SDS011;11026;50.560;17.852;2022-09-09T14:02:59;5.80;;;1.45;;
21727;SDS011;11026;50.560;17.852;2022-09-09T14:05:30;1.63;;;1.08;;
21727;SDS011;11026;50.560;17.852;2022-09-09T14:10:47;2.33;;;1.30;;
21727;SDS011;11026;50.560;17.852;2022-09-09T14:15:48;3.55;;;1.23;;
21727;SDS011;11026;50.560;17.852;2022-09-09T14:29:24;2.45;;;1.30;;
21727;SDS011;11026;50.560;17.852;2022-09-09T14:32:05;1.30;;;1.00;;
21727;SDS011;11026;50.560;17.852;2022-09-09T14:34:43;2.17;;;1.35;;
21727;SDS011;11026;50.560;17.852;2022-09-09T14:37:10;3.08;;;1.30;;
21727;SDS011;11026;50.560;17.852;2022-09-09T14:39:39;2.20;;;1.13;;
21727;SDS011;11026;50.560;17.852;2022-09-09T14:42:08;2.70;;;1.30;;
21727;SDS011;11026;50.560;17.852;2022-09-09T14:44:43;1.73;;;1.05;;
21727;SDS011;11026;50.560;17.852;2022-09-09T14:47:11;2.05;;;1.27;;
21727;SDS011;11026;50.560;17.852;2022-09-09T14:49:39;4.68;;;1.30;;
21727;SDS011;11026;50.560;17.852;2022-09-09T14:57:52;2.20;;;1.10;;
21727;SDS011;11026;50.560;17.852;2022-09-09T15:02:56;3.22;;;1.25;;
21727;SDS011;11026;50.560;17.852;2022-09-09T15:05:30;1.90;;;1.00;;
21727;SDS011;11026;50.560;17.852;2022-09-09T15:08:01;3.90;;;1.17;;
21727;SDS011;11026;50.560;17.852;2022-09-09T15:10:29;3.42;;;1.20;;
21727;SDS011;11026;50.560;17.852;2022-09-09T15:13:07;2.25;;;1.02;;
21727;SDS011;11026;50.560;17.852;2022-09-09T15:15:35;1.50;;;1.23;;
21727;SDS011;11026;50.560;17.852;2022-09-09T15:20:38;1.20;;;0.90;;
21727;SDS011;11026;50.560;17.852;2022-09-09T15:25:52;1.65;;;0.90;;
21727;SDS011;11026;50.560;17.852;2022-09-09T15:28:21;1.38;;;1.02;;
21727;SDS011;11026;50.560;17.852;2022-09-09T15:30:51;3.78;;;1.60;;
21727;SDS011;11026;50.560;17.852;2022-09-09T15:33:25;2.35;;;1.10;;
21727;SDS011;11026;50.560;17.852;2022-09-09T15:35:53;5.93;;;1.60;;
21727;SDS011;11026;50.560;17.852;2022-09-09T15:38:22;7.05;;;1.88;;
21727;SDS011;11026;50.560;17.852;2022-09-09T15:40:54;1.83;;;1.13;;
21727;SDS011;11026;50.560;17.852;2022-09-09T15:43:27;1.45;;;1.20;;
21727;SDS011;11026;50.560;17.852;2022-09-09T15:45:59;4.80;;;1.65;;
21727;SDS011;11026;50.560;17.852;2022-09-09T15:48:52;4.22;;;1.50;;
21727;SDS011;11026;50.560;17.852;2022-09-09T15:51:23;3.35;;;1.50;;
21727;SDS011;11026;50.560;17.852;2022-09-09T15:54:13;5.13;;;1.80;;
21727;SDS011;11026;50.560;17.852;2022-09-09T15:56:57;3.53;;;1.98;;
21727;SDS011;11026;50.560;17.852;2022-09-09T16:04:57;4.75;;;1.90;;
21727;SDS011;11026;50.560;17.852;2022-09-09T16:07:25;3.15;;;1.60;;
21727;SDS011;11026;50.560;17.852;2022-09-09T16:12:24;4.10;;;1.60;;
21727;SDS011;11026;50.560;17.852;2022-09-09T16:14:54;3.28;;;1.60;;
21727;SDS011;11026;50.560;17.852;2022-09-09T16:17:28;3.25;;;1.80;;
21727;SDS011;11026;50.560;17.852;2022-09-09T16:22:53;2.80;;;1.23;;
21727;SDS011;11026;50.560;17.852;2022-09-09T16:25:23;2.65;;;1.60;;
21727;SDS011;11026;50.560;17.852;2022-09-09T16:27:51;3.33;;;1.52;;
21727;SDS011;11026;50.560;17.852;2022-09-09T16:30:20;5.45;;;1.77;;
21727;SDS011;11026;50.560;17.852;2022-09-09T16:32:49;4.05;;;1.73;;
21727;SDS011;11026;50.560;17.852;2022-09-09T16:35:17;2.63;;;2.00;;
21727;SDS011;11026;50.560;17.852;2022-09-09T16:37:47;2.25;;;1.80;;
21727;SDS011;11026;50.560;17.852;2022-09-09T16:40:16;4.85;;;2.10;;
21727;SDS011;11026;50.560;17.852;2022-09-09T16:42:44;6.53;;;2.88;;
21727;SDS011;11026;50.560;17.852;2022-09-09T16:45:11;3.33;;;2.00;;
21727;SDS011;11026;50.560;17.852;2022-09-09T16:47:41;6.38;;;2.40;;
21727;SDS011;11026;50.560;17.852;2022-09-09T16:50:10;4.68;;;2.58;;
21727;SDS011;11026;50.560;17.852;2022-09-09T16:52:37;4.40;;;2.67;;
21727;SDS011;11026;50.560;17.852;2022-09-09T16:55:05;4.72;;;2.30;;
21727;SDS011;11026;50.560;17.852;2022-09-09T16:57:32;5.13;;;2.47;;
21727;SDS011;11026;50.560;17.852;2022-09-09T16:59:59;5.78;;;2.33;;
21727;SDS011;11026;50.560;17.852;2022-09-09T17:02:29;4.78;;;2.58;;
21727;SDS011;11026;50.560;17.852;2022-09-09T17:04:56;6.75;;;2.80;;
21727;SDS011;11026;50.560;17.852;2022-09-09T17:07:24;2.83;;;2.30;;
21727;SDS011;11026;50.560;17.852;2022-09-09T17:09:51;2.90;;;2.17;;
21727;SDS011;11026;50.560;17.852;2022-09-09T17:17:18;5.10;;;3.47;;
21727;SDS011;11026;50.560;17.852;2022-09-09T17:19:58;5.80;;;3.10;;
21727;SDS011;11026;50.560;17.852;2022-09-09T17:22:26;6.53;;;3.95;;
21727;SDS011;11026;50.560;17.852;2022-09-09T17:24:53;4.95;;;2.50;;
21727;SDS011;11026;50.560;17.852;2022-09-09T17:27:21;3.85;;;2.40;;
21727;SDS011;11026;50.560;17.852;2022-09-09T17:29:48;4.50;;;2.15;;
21727;SDS011;11026;50.560;17.852;2022-09-09T17:32:21;5.60;;;2.40;;
21727;SDS011;11026;50.560;17.852;2022-09-09T17:34:48;4.50;;;2.05;;
21727;SDS011;11026;50.560;17.852;2022-09-09T17:37:16;2.58;;;2.30;;
21727;SDS011;11026;50.560;17.852;2022-09-09T17:39:48;4.40;;;2.42;;
21727;SDS011;11026;50.560;17.852;2022-09-09T17:42:16;2.90;;;2.25;;
21727;SDS011;11026;50.560;17.852;2022-09-09T17:44:43;3.05;;;2.30;;
21727;SDS011;11026;50.560;17.852;2022-09-09T17:47:10;3.10;;;2.38;;
21727;SDS011;11026;50.560;17.852;2022-09-09T17:49:40;5.10;;;2.30;;
21727;SDS011;11026;50.560;17.852;2022-09-09T17:52:09;7.10;;;2.58;;
21727;SDS011;11026;50.560;17.852;2022-09-09T17:57:09;4.57;;;2.30;;
21727;SDS011;11026;50.560;17.852;2022-09-09T17:59:36;4.10;;;2.33;;
21727;SDS011;11026;50.560;17.852;2022-09-09T18:02:11;5.20;;;2.15;;
21727;SDS011;11026;50.560;17.852;2022-09-09T18:04:42;4.55;;;2.45;;
21727;SDS011;11026;50.560;17.852;2022-09-09T18:07:15;6.10;;;2.28;;
21727;SDS011;11026;50.560;17.852;2022-09-09T18:12:18;4.03;;;2.40;;
21727;SDS011;11026;50.560;17.852;2022-09-09T18:17:42;6.90;;;2.20;;
21727;SDS011;11026;50.560;17.852;2022-09-09T18:22:41;7.40;;;2.63;;
21727;SDS011;11026;50.560;17.852;2022-09-09T18:25:09;2.88;;;2.55;;
21727;SDS011;11026;50.560;17.852;2022-09-09T18:30:12;3.97;;;2.70;;
21727;SDS011;11026;50.560;17.852;2022-09-09T18:35:34;9.65;;;2.95;;
21727;SDS011;11026;50.560;17.852;2022-09-09T18:41:00;6.28;;;2.58;;
21727;SDS011;11026;50.560;17.852;2022-09-09T18:43:42;4.93;;;2.45;;
21727;SDS011;11026;50.560;17.852;2022-09-09T18:46:29;5.80;;;2.50;;
21727;SDS011;11026;50.560;17.852;2022-09-09T18:49:00;3.20;;;2.30;;
21727;SDS011;11026;50.560;17.852;2022-09-09T18:51:32;4.65;;;2.58;;
21727;SDS011;11026;50.560;17.852;2022-09-09T18:54:07;5.07;;;2.55;;
21727;SDS011;11026;50.560;17.852;2022-09-09T18:56:42;6.38;;;2.90;;
21727;SDS011;11026;50.560;17.852;2022-09-09T18:59:17;3.85;;;2.53;;
21727;SDS011;11026;50.560;17.852;2022-09-09T19:01:49;4.38;;;2.40;;
21727;SDS011;11026;50.560;17.852;2022-09-09T19:04:19;6.43;;;2.60;;
21727;SDS011;11026;50.560;17.852;2022-09-09T19:06:50;2.65;;;2.45;;
21727;SDS011;11026;50.560;17.852;2022-09-09T19:12:06;3.92;;;2.40;;
21727;SDS011;11026;50.560;17.852;2022-09-09T19:14:43;3.85;;;2.22;;
21727;SDS011;11026;50.560;17.852;2022-09-09T19:22:37;6.05;;;2.92;;
21727;SDS011;11026;50.560;17.852;2022-09-09T19:25:07;4.47;;;3.60;;
21727;SDS011;11026;50.560;17.852;2022-09-09T19:27:44;5.70;;;3.58;;
21727;SDS011;11026;50.560;17.852;2022-09-09T19:30:20;5.97;;;3.72;;
21727;SDS011;11026;50.560;17.852;2022-09-09T19:32:56;5.80;;;3.33;;
21727;SDS011;11026;50.560;17.852;2022-09-09T19:35:31;4.93;;;3.20;;
21727;SDS011;11026;50.560;17.852;2022-09-09T19:37:58;6.28;;;3.33;;
21727;SDS011;11026;50.560;17.852;2022-09-09T19:40:34;6.03;;;3.00;;
21727;SDS011;11026;50.560;17.852;2022-09-09T19:43:03;5.57;;;3.20;;
21727;SDS011;11026;50.560;17.852;2022-09-09T19:48:04;6.53;;;3.60;;
21727;SDS011;11026;50.560;17.852;2022-09-09T19:50:44;4.32;;;3.03;;
21727;SDS011;11026;50.560;17.852;2022-09-09T19:53:17;6.10;;;3.40;;
21727;SDS011;11026;50.560;17.852;2022-09-09T19:55:47;6.53;;;3.30;;
21727;SDS011;11026;50.560;17.852;2022-09-09T19:58:17;5.38;;;3.15;;
21727;SDS011;11026;50.560;17.852;2022-09-09T20:03:22;4.72;;;4.05;;
21727;SDS011;11026;50.560;17.852;2022-09-09T20:05:50;6.32;;;3.88;;
21727;SDS011;11026;50.560;17.852;2022-09-09T20:10:59;5.70;;;4.28;;
21727;SDS011;11026;50.560;17.852;2022-09-09T20:13:29;8.48;;;4.32;;
21727;SDS011;11026;50.560;17.852;2022-09-09T20:16:02;6.07;;;4.07;;
21727;SDS011;11026;50.560;17.852;2022-09-09T20:18:35;6.80;;;4.43;;
21727;SDS011;11026;50.560;17.852;2022-09-09T20:24:16;7.53;;;4.28;;
21727;SDS011;11026;50.560;17.852;2022-09-09T20:26:47;9.63;;;4.07;;
21727;SDS011;11026;50.560;17.852;2022-09-09T20:29:17;5.43;;;4.55;;
21727;SDS011;11026;50.560;17.852;2022-09-09T20:31:53;4.53;;;3.70;;
21727;SDS011;11026;50.560;17.852;2022-09-09T20:34:38;6.18;;;3.83;;
21727;SDS011;11026;50.560;17.852;2022-09-09T20:40:05;6.55;;;3.67;;
21727;SDS011;11026;50.560;17.852;2022-09-09T20:45:15;4.80;;;3.70;;
21727;SDS011;11026;50.560;17.852;2022-09-09T20:47:50;6.45;;;3.42;;
21727;SDS011;11026;50.560;17.852;2022-09-09T20:50:19;8.82;;;3.95;;
21727;SDS011;11026;50.560;17.852;2022-09-09T20:52:49;7.40;;;3.72;;
21727;SDS011;11026;50.560;17.852;2022-09-09T20:55:20;5.97;;;3.83;;
21727;SDS011;11026;50.560;17.852;2022-09-09T21:00:35;8.57;;;4.97;;
21727;SDS011;11026;50.560;17.852;2022-09-09T21:03:02;5.68;;;5.13;;